sensor_id;sensor_type;location;lat;lon;timestamp;P1;durP1;ratioP1;P2;durP2;ratioP2
7823;SDS011;3957;48.61947800;9.05303100;2022-09-09T04:00:24;2.47;;;1.30;;
7823;SDS011;3957;48.61947800;9.05303100;2022-09-09T04:01:48;1.08;;;0.98;;
7823;SDS011;3957;48.61947800;9.05303100;2022-09-09T04:03:09;3.97;;;1.48;;
7823;SDS011;3957;48.61947800;9.05303100;2022-09-09T04:04:30;3.90;;;1.30;;
7823;SDS011;3957;48.61947800;9.05303100;2022-09-09T04:05:51;2.22;;;1.17;;
7823;SDS011;3957;48.61947800;9.05303100;2022-09-09T04:07:13;2.08;;;1.17;;
7823;SDS011;3957;48.61947800;9.05303100;2022-09-09T04:08:34;4.38;;;1.30;;
7823;SDS011;3957;48.61947800;9.05303100;2022-09-09T04:09:56;3.15;;;1.20;;
7823;SDS011;3957;48.61947800;9.05303100;2022-09-09T04:11:17;1.90;;;1.20;;
7823;SDS011;3957;48.61947800;9.05303100;2022-09-09T04:12:40;2.40;;;1.38;;
7823;SDS011;3957;48.61947800;9.05303100;2022-09-09T04:14:01;2.05;;;1.27;;
7823;SDS011;3957;48.61947800;9.05303100;2022-09-09T04:15:24;3.83;;;1.33;;
7823;SDS011;3957;48.61947800;9.05303100;2022-09-09T04:16:45;3.00;;;1.40;;
7823;SDS011;3957;48.61947800;9.05303100;2022-09-09T04:18:06;2.40;;;1.20;;
7823;SDS011;3957;48.61947800;9.05303100;2022-09-09T04:19:27;3.53;;;1.20;;
7823;SDS011;3957;48.61947800;9.05303100;2022-09-09T04:20:48;2.47;;;1.30;;
7823;SDS011;3957;48.61947800;9.05303100;2022-09-09T04:22:12;3.53;;;1.40;;
7823;SDS011;3957;48.61947800;9.05303100;2022-09-09T04:23:33;2.35;;;1.10;;
7823;SDS011;3957;48.61947800;9.05303100;2022-09-09T04:24:54;2.90;;;1.15;;
7823;SDS011;3957;48.61947800;9.05303100;2022-09-09T04:26:15;2.25;;;1.20;;
7823;SDS011;3957;48.61947800;9.05303100;2022-09-09T04:27:38;1.37;;;1.03;;
7823;SDS011;3957;48.61947800;9.05303100;2022-09-09T04:29:00;2.40;;;1.30;;
7823;SDS011;3957;48.61947800;9.05303100;2022-09-09T04:30:22;2.40;;;1.30;;
7823;SDS011;3957;48.61947800;9.05303100;2022-09-09T04:31:44;1.65;;;1.00;;
7823;SDS011;3957;48.61947800;9.05303100;2022-09-09T04:33:05;1.23;;;1.05;;
7823;SDS011;3957;48.61947800;9.05303100;2022-09-09T04:34:26;1.10;;;1.00;;
7823;SDS011;3957;48.61947800;9.05303100;2022-09-09T04:35:49;2.03;;;1.15;;
7823;SDS011;3957;48.61947800;9.05303100;2022-09-09T04:37:12;3.63;;;1.15;;
7823;SDS011;3957;48.61947800;9.05303100;2022-09-09T04:38:33;1.40;;;1.10;;
7823;SDS011;3957;48.61947800;9.05303100;2022-09-09T04:39:55;1.55;;;1.20;;
7823;SDS011;3957;48.61947800;9.05303100;2022-09-09T04:41:16;1.83;;;1.10;;
7823;SDS011;3957;48.61947800;9.05303100;2022-09-09T04:42:38;1.38;;;1.05;;
7823;SDS011;3957;48.61947800;9.05303100;2022-09-09T04:44:00;5.68;;;1.20;;
7823;SDS011;3957;48.61947800;9.05303100;2022-09-09T04:45:21;3.30;;;1.25;;
7823;SDS011;3957;48.61947800;9.05303100;2022-09-09T04:46:42;2.45;;;0.98;;
7823;SDS011;3957;48.61947800;9.05303100;2022-09-09T04:48:04;1.20;;;1.08;;
7823;SDS011;3957;48.61947800;9.05303100;2022-09-09T04:49:25;4.22;;;1.30;;
7823;SDS011;3957;48.61947800;9.05303100;2022-09-09T04:50:56;1.40;;;1.00;;
7823;SDS011;3957;48.61947800;9.05303100;2022-09-09T04:52:18;2.65;;;1.05;;
7823;SDS011;3957;48.61947800;9.05303100;2022-09-09T04:53:39;1.10;;;1.00;;
7823;SDS011;3957;48.61947800;9.05303100;2022-09-09T04:55:01;1.60;;;1.00;;
7823;SDS011;3957;48.61947800;9.05303100;2022-09-09T04:56:22;1.85;;;1.10;;
7823;SDS011;3957;48.61947800;9.05303100;2022-09-09T04:57:49;2.67;;;1.20;;
7823;SDS011;3957;48.61947800;9.05303100;2022-09-09T04:59:09;2.60;;;1.10;;
7823;SDS011;3957;48.61947800;9.05303100;2022-09-09T05:00:36;2.80;;;1.15;;
7823;SDS011;3957;48.61947800;9.05303100;2022-09-09T05:02:00;2.55;;;1.20;;
7823;SDS011;3957;48.61947800;9.05303100;2022-09-09T05:03:23;4.72;;;1.17;;
7823;SDS011;3957;48.61947800;9.05303100;2022-09-09T05:04:44;2.30;;;1.10;;
7823;SDS011;3957;48.61947800;9.05303100;2022-09-09T05:06:06;1.70;;;1.02;;
7823;SDS011;3957;48.61947800;9.05303100;2022-09-09T05:07:29;3.30;;;1.30;;
7823;SDS011;3957;48.61947800;9.05303100;2022-09-09T05:08:52;2.22;;;1.02;;
7823;SDS011;3957;48.61947800;9.05303100;2022-09-09T05:10:17;1.35;;;1.10;;
7823;SDS011;3957;48.61947800;9.05303100;2022-09-09T05:11:40;1.08;;;0.98;;
7823;SDS011;3957;48.61947800;9.05303100;2022-09-09T05:13:06;1.77;;;1.20;;
7823;SDS011;3957;48.61947800;9.05303100;2022-09-09T05:14:27;1.75;;;0.98;;
7823;SDS011;3957;48.61947800;9.05303100;2022-09-09T05:15:52;1.30;;;0.90;;
7823;SDS011;3957;48.61947800;9.05303100;2022-09-09T05:17:13;4.15;;;1.50;;
7823;SDS011;3957;48.61947800;9.05303100;2022-09-09T05:18:35;3.15;;;1.20;;
7823;SDS011;3957;48.61947800;9.05303100;2022-09-09T05:19:56;2.22;;;1.20;;
7823;SDS011;3957;48.61947800;9.05303100;2022-09-09T05:21:18;3.75;;;1.08;;
7823;SDS011;3957;48.61947800;9.05303100;2022-09-09T05:22:39;3.33;;;1.08;;
7823;SDS011;3957;48.61947800;9.05303100;2022-09-09T05:24:00;2.30;;;1.20;;
7823;SDS011;3957;48.61947800;9.05303100;2022-09-09T05:25:22;1.48;;;1.02;;
7823;SDS011;3957;48.61947800;9.05303100;2022-09-09T05:26:47;2.95;;;1.10;;
7823;SDS011;3957;48.61947800;9.05303100;2022-09-09T05:28:09;2.28;;;1.20;;
7823;SDS011;3957;48.61947800;9.05303100;2022-09-09T05:29:30;2.50;;;1.40;;
7823;SDS011;3957;48.61947800;9.05303100;2022-09-09T05:31:00;1.08;;;0.98;;
7823;SDS011;3957;48.61947800;9.05303100;2022-09-09T05:32:29;1.40;;;1.10;;
7823;SDS011;3957;48.61947800;9.05303100;2022-09-09T05:33:54;1.42;;;1.00;;
7823;SDS011;3957;48.61947800;9.05303100;2022-09-09T05:35:14;1.45;;;1.00;;
7823;SDS011;3957;48.61947800;9.05303100;2022-09-09T05:36:36;1.10;;;1.00;;
7823;SDS011;3957;48.61947800;9.05303100;2022-09-09T05:37:59;3.40;;;1.10;;
7823;SDS011;3957;48.61947800;9.05303100;2022-09-09T05:39:20;3.97;;;1.40;;
7823;SDS011;3957;48.61947800;9.05303100;2022-09-09T05:40:46;2.47;;;1.20;;
7823;SDS011;3957;48.61947800;9.05303100;2022-09-09T05:42:09;2.00;;;1.20;;
7823;SDS011;3957;48.61947800;9.05303100;2022-09-09T05:43:30;2.22;;;1.00;;
7823;SDS011;3957;48.61947800;9.05303100;2022-09-09T05:44:52;1.98;;;1.10;;
7823;SDS011;3957;48.61947800;9.05303100;2022-09-09T05:47:41;3.50;;;1.10;;
7823;SDS011;3957;48.61947800;9.05303100;2022-09-09T05:49:05;3.10;;;0.90;;
7823;SDS011;3957;48.61947800;9.05303100;2022-09-09T05:50:27;2.60;;;1.20;;
7823;SDS011;3957;48.61947800;9.05303100;2022-09-09T05:51:49;1.98;;;1.00;;
7823;SDS011;3957;48.61947800;9.05303100;2022-09-09T05:53:12;2.28;;;1.05;;
7823;SDS011;3957;48.61947800;9.05303100;2022-09-09T05:54:32;1.70;;;1.00;;
7823;SDS011;3957;48.61947800;9.05303100;2022-09-09T05:56:03;2.00;;;1.10;;
7823;SDS011;3957;48.61947800;9.05303100;2022-09-09T05:57:28;3.40;;;1.38;;
7823;SDS011;3957;48.61947800;9.05303100;2022-09-09T05:58:49;2.42;;;1.35;;
7823;SDS011;3957;48.61947800;9.05303100;2022-09-09T06:00:12;2.15;;;0.93;;
7823;SDS011;3957;48.61947800;9.05303100;2022-09-09T06:01:36;3.05;;;1.13;;
7823;SDS011;3957;48.61947800;9.05303100;2022-09-09T06:03:02;2.40;;;1.20;;
7823;SDS011;3957;48.61947800;9.05303100;2022-09-09T06:04:24;1.20;;;1.10;;
7823;SDS011;3957;48.61947800;9.05303100;2022-09-09T06:05:45;1.40;;;0.85;;
7823;SDS011;3957;48.61947800;9.05303100;2022-09-09T06:07:06;3.08;;;1.13;;
7823;SDS011;3957;48.61947800;9.05303100;2022-09-09T06:08:27;1.60;;;0.93;;
7823;SDS011;3957;48.61947800;9.05303100;2022-09-09T06:09:48;2.13;;;1.20;;
7823;SDS011;3957;48.61947800;9.05303100;2022-09-09T06:11:10;3.10;;;1.30;;
7823;SDS011;3957;48.61947800;9.05303100;2022-09-09T06:12:34;1.48;;;0.90;;
7823;SDS011;3957;48.61947800;9.05303100;2022-09-09T06:13:56;2.22;;;0.82;;
7823;SDS011;3957;48.61947800;9.05303100;2022-09-09T06:15:18;2.63;;;1.30;;
7823;SDS011;3957;48.61947800;9.05303100;2022-09-09T06:16:39;1.33;;;1.02;;
7823;SDS011;3957;48.61947800;9.05303100;2022-09-09T06:18:08;1.48;;;1.00;;
7823;SDS011;3957;48.61947800;9.05303100;2022-09-09T06:19:29;1.98;;;1.10;;
7823;SDS011;3957;48.61947800;9.05303100;2022-09-09T06:20:56;4.47;;;1.10;;
7823;SDS011;3957;48.61947800;9.05303100;2022-09-09T06:22:18;1.30;;;1.20;;
7823;SDS011;3957;48.61947800;9.05303100;2022-09-09T06:23:39;1.70;;;1.05;;
7823;SDS011;3957;48.61947800;9.05303100;2022-09-09T06:25:01;1.38;;;0.93;;
7823;SDS011;3957;48.61947800;9.05303100;2022-09-09T06:26:23;1.70;;;1.00;;
7823;SDS011;3957;48.61947800;9.05303100;2022-09-09T06:27:49;2.20;;;1.00;;
7823;SDS011;3957;48.61947800;9.05303100;2022-09-09T06:29:10;1.80;;;0.98;;
7823;SDS011;3957;48.61947800;9.05303100;2022-09-09T06:30:31;3.97;;;1.13;;
7823;SDS011;3957;48.61947800;9.05303100;2022-09-09T06:31:52;2.50;;;1.00;;
7823;SDS011;3957;48.61947800;9.05303100;2022-09-09T06:33:18;2.55;;;1.05;;
7823;SDS011;3957;48.61947800;9.05303100;2022-09-09T06:34:38;4.88;;;1.17;;
7823;SDS011;3957;48.61947800;9.05303100;2022-09-09T06:36:01;2.90;;;1.25;;
7823;SDS011;3957;48.61947800;9.05303100;2022-09-09T06:37:24;2.17;;;1.15;;
7823;SDS011;3957;48.61947800;9.05303100;2022-09-09T06:38:47;2.60;;;1.10;;
7823;SDS011;3957;48.61947800;9.05303100;2022-09-09T06:40:09;1.15;;;0.90;;
7823;SDS011;3957;48.61947800;9.05303100;2022-09-09T06:41:31;1.00;;;0.90;;
7823;SDS011;3957;48.61947800;9.05303100;2022-09-09T06:42:58;1.73;;;1.15;;
7823;SDS011;3957;48.61947800;9.05303100;2022-09-09T06:44:34;2.88;;;1.27;;
7823;SDS011;3957;48.61947800;9.05303100;2022-09-09T06:45:55;2.83;;;1.10;;
7823;SDS011;3957;48.61947800;9.05303100;2022-09-09T06:47:18;1.95;;;1.10;;
7823;SDS011;3957;48.61947800;9.05303100;2022-09-09T06:48:39;2.17;;;0.98;;
7823;SDS011;3957;48.61947800;9.05303100;2022-09-09T06:50:05;5.30;;;1.20;;
7823;SDS011;3957;48.61947800;9.05303100;2022-09-09T06:51:29;1.42;;;0.95;;
7823;SDS011;3957;48.61947800;9.05303100;2022-09-09T06:52:51;1.17;;;1.08;;
7823;SDS011;3957;48.61947800;9.05303100;2022-09-09T06:54:12;3.47;;;1.20;;
7823;SDS011;3957;48.61947800;9.05303100;2022-09-09T06:55:36;1.20;;;1.10;;
7823;SDS011;3957;48.61947800;9.05303100;2022-09-09T06:56:58;2.05;;;1.02;;
7823;SDS011;3957;48.61947800;9.05303100;2022-09-09T06:58:20;2.05;;;1.02;;
7823;SDS011;3957;48.61947800;9.05303100;2022-09-09T06:59:45;1.60;;;1.00;;
7823;SDS011;3957;48.61947800;9.05303100;2022-09-09T07:01:06;1.90;;;1.00;;
7823;SDS011;3957;48.61947800;9.05303100;2022-09-09T07:02:28;1.67;;;0.90;;
7823;SDS011;3957;48.61947800;9.05303100;2022-09-09T07:03:49;1.17;;;1.05;;
7823;SDS011;3957;48.61947800;9.05303100;2022-09-09T07:05:12;2.60;;;1.30;;
7823;SDS011;3957;48.61947800;9.05303100;2022-09-09T07:06:35;2.25;;;1.10;;
7823;SDS011;3957;48.61947800;9.05303100;2022-09-09T07:07:58;1.90;;;1.00;;
7823;SDS011;3957;48.61947800;9.05303100;2022-09-09T07:09:20;3.33;;;1.15;;
7823;SDS011;3957;48.61947800;9.05303100;2022-09-09T07:10:43;2.30;;;1.00;;
7823;SDS011;3957;48.61947800;9.05303100;2022-09-09T07:12:04;1.08;;;0.88;;
7823;SDS011;3957;48.61947800;9.05303100;2022-09-09T07:13:28;1.95;;;1.10;;
7823;SDS011;3957;48.61947800;9.05303100;2022-09-09T07:14:50;3.83;;;1.38;;
7823;SDS011;3957;48.61947800;9.05303100;2022-09-09T07:16:12;1.87;;;1.17;;
7823;SDS011;3957;48.61947800;9.05303100;2022-09-09T07:17:35;1.70;;;0.98;;
7823;SDS011;3957;48.61947800;9.05303100;2022-09-09T07:18:56;2.30;;;1.10;;
7823;SDS011;3957;48.61947800;9.05303100;2022-09-09T07:20:18;4.22;;;1.23;;
7823;SDS011;3957;48.61947800;9.05303100;2022-09-09T07:21:40;2.65;;;1.13;;
7823;SDS011;3957;48.61947800;9.05303100;2022-09-09T07:23:02;1.40;;;1.00;;
7823;SDS011;3957;48.61947800;9.05303100;2022-09-09T07:24:23;4.30;;;1.10;;
7823;SDS011;3957;48.61947800;9.05303100;2022-09-09T07:25:45;2.30;;;0.93;;
7823;SDS011;3957;48.61947800;9.05303100;2022-09-09T07:27:09;3.28;;;1.15;;
7823;SDS011;3957;48.61947800;9.05303100;2022-09-09T07:28:31;2.03;;;1.03;;
7823;SDS011;3957;48.61947800;9.05303100;2022-09-09T07:29:51;1.90;;;0.90;;
7823;SDS011;3957;48.61947800;9.05303100;2022-09-09T07:31:21;1.35;;;0.90;;
7823;SDS011;3957;48.61947800;9.05303100;2022-09-09T07:32:47;1.58;;;0.93;;
7823;SDS011;3957;48.61947800;9.05303100;2022-09-09T07:34:11;1.73;;;0.90;;
7823;SDS011;3957;48.61947800;9.05303100;2022-09-09T07:35:33;2.10;;;1.05;;
7823;SDS011;3957;48.61947800;9.05303100;2022-09-09T07:36:54;3.00;;;1.20;;
7823;SDS011;3957;48.61947800;9.05303100;2022-09-09T07:38:18;3.42;;;1.00;;
7823;SDS011;3957;48.61947800;9.05303100;2022-09-09T07:39:39;2.33;;;1.13;;
7823;SDS011;3957;48.61947800;9.05303100;2022-09-09T07:41:05;2.50;;;1.00;;
7823;SDS011;3957;48.61947800;9.05303100;2022-09-09T07:42:29;3.13;;;1.15;;
7823;SDS011;3957;48.61947800;9.05303100;2022-09-09T07:43:50;1.67;;;0.93;;
7823;SDS011;3957;48.61947800;9.05303100;2022-09-09T07:45:14;3.90;;;1.10;;
7823;SDS011;3957;48.61947800;9.05303100;2022-09-09T07:46:35;1.63;;;1.05;;
7823;SDS011;3957;48.61947800;9.05303100;2022-09-09T07:47:56;2.15;;;1.13;;
7823;SDS011;3957;48.61947800;9.05303100;2022-09-09T07:49:17;3.00;;;1.10;;
7823;SDS011;3957;48.61947800;9.05303100;2022-09-09T07:50:39;1.17;;;0.95;;
7823;SDS011;3957;48.61947800;9.05303100;2022-09-09T07:52:00;4.10;;;1.27;;
7823;SDS011;3957;48.61947800;9.05303100;2022-09-09T07:53:23;1.50;;;0.90;;
7823;SDS011;3957;48.61947800;9.05303100;2022-09-09T07:54:44;4.30;;;1.23;;
7823;SDS011;3957;48.61947800;9.05303100;2022-09-09T07:56:08;2.55;;;0.98;;
7823;SDS011;3957;48.61947800;9.05303100;2022-09-09T07:57:30;1.17;;;0.93;;
7823;SDS011;3957;48.61947800;9.05303100;2022-09-09T07:58:52;3.00;;;1.02;;
7823;SDS011;3957;48.61947800;9.05303100;2022-09-09T08:00:14;2.60;;;1.07;;
7823;SDS011;3957;48.61947800;9.05303100;2022-09-09T08:01:40;4.40;;;1.30;;
7823;SDS011;3957;48.61947800;9.05303100;2022-09-09T08:03:14;2.95;;;1.08;;
7823;SDS011;3957;48.61947800;9.05303100;2022-09-09T08:04:35;2.65;;;1.20;;
7823;SDS011;3957;48.61947800;9.05303100;2022-09-09T08:05:59;7.88;;;1.48;;
7823;SDS011;3957;48.61947800;9.05303100;2022-09-09T08:07:22;3.40;;;0.98;;
7823;SDS011;3957;48.61947800;9.05303100;2022-09-09T08:08:49;2.03;;;1.17;;
7823;SDS011;3957;48.61947800;9.05303100;2022-09-09T08:10:11;3.28;;;1.10;;
7823;SDS011;3957;48.61947800;9.05303100;2022-09-09T08:11:35;2.63;;;1.00;;
7823;SDS011;3957;48.61947800;9.05303100;2022-09-09T08:12:57;3.70;;;1.00;;
7823;SDS011;3957;48.61947800;9.05303100;2022-09-09T08:14:18;5.15;;;0.90;;
7823;SDS011;3957;48.61947800;9.05303100;2022-09-09T08:15:40;4.07;;;1.20;;
7823;SDS011;3957;48.61947800;9.05303100;2022-09-09T08:17:02;2.00;;;1.10;;
7823;SDS011;3957;48.61947800;9.05303100;2022-09-09T08:18:26;1.55;;;0.95;;
7823;SDS011;3957;48.61947800;9.05303100;2022-09-09T08:19:47;1.37;;;0.90;;
7823;SDS011;3957;48.61947800;9.05303100;2022-09-09T08:21:14;2.13;;;1.10;;
7823;SDS011;3957;48.61947800;9.05303100;2022-09-09T08:22:38;2.50;;;1.20;;
7823;SDS011;3957;48.61947800;9.05303100;2022-09-09T08:24:00;3.55;;;1.05;;
7823;SDS011;3957;48.61947800;9.05303100;2022-09-09T08:25:21;2.75;;;1.13;;
7823;SDS011;3957;48.61947800;9.05303100;2022-09-09T08:26:43;3.03;;;0.95;;
7823;SDS011;3957;48.61947800;9.05303100;2022-09-09T08:28:06;4.18;;;1.13;;
7823;SDS011;3957;48.61947800;9.05303100;2022-09-09T08:29:27;2.78;;;1.08;;
7823;SDS011;3957;48.61947800;9.05303100;2022-09-09T08:30:49;3.45;;;1.10;;
7823;SDS011;3957;48.61947800;9.05303100;2022-09-09T08:32:10;2.88;;;1.00;;
7823;SDS011;3957;48.61947800;9.05303100;2022-09-09T08:33:32;2.05;;;1.20;;
7823;SDS011;3957;48.61947800;9.05303100;2022-09-09T08:34:54;3.33;;;1.13;;
7823;SDS011;3957;48.61947800;9.05303100;2022-09-09T08:36:17;1.98;;;1.20;;
7823;SDS011;3957;48.61947800;9.05303100;2022-09-09T08:37:39;3.97;;;1.42;;
7823;SDS011;3957;48.61947800;9.05303100;2022-09-09T08:39:00;2.70;;;1.00;;
7823;SDS011;3957;48.61947800;9.05303100;2022-09-09T08:40:23;2.75;;;1.20;;
7823;SDS011;3957;48.61947800;9.05303100;2022-09-09T08:41:58;3.45;;;1.33;;
7823;SDS011;3957;48.61947800;9.05303100;2022-09-09T08:43:34;2.70;;;1.13;;
7823;SDS011;3957;48.61947800;9.05303100;2022-09-09T08:46:35;2.30;;;1.05;;
7823;SDS011;3957;48.61947800;9.05303100;2022-09-09T08:48:29;2.90;;;1.20;;
7823;SDS011;3957;48.61947800;9.05303100;2022-09-09T08:50:35;3.33;;;1.30;;
7823;SDS011;3957;48.61947800;9.05303100;2022-09-09T08:51:56;2.63;;;1.27;;
7823;SDS011;3957;48.61947800;9.05303100;2022-09-09T08:54:48;2.65;;;0.95;;
7823;SDS011;3957;48.61947800;9.05303100;2022-09-09T08:56:12;3.35;;;1.30;;
7823;SDS011;3957;48.61947800;9.05303100;2022-09-09T08:57:40;2.45;;;1.15;;
7823;SDS011;3957;48.61947800;9.05303100;2022-09-09T08:59:01;2.33;;;1.00;;
7823;SDS011;3957;48.61947800;9.05303100;2022-09-09T09:00:33;2.60;;;1.08;;
7823;SDS011;3957;48.61947800;9.05303100;2022-09-09T09:02:17;2.65;;;1.30;;
7823;SDS011;3957;48.61947800;9.05303100;2022-09-09T09:10:46;2.80;;;1.00;;
7823;SDS011;3957;48.61947800;9.05303100;2022-09-09T09:12:23;2.10;;;0.88;;
7823;SDS011;3957;48.61947800;9.05303100;2022-09-09T09:15:24;2.00;;;1.00;;
7823;SDS011;3957;48.61947800;9.05303100;2022-09-09T09:17:02;3.22;;;1.20;;
7823;SDS011;3957;48.61947800;9.05303100;2022-09-09T09:18:26;0.98;;;0.80;;
7823;SDS011;3957;48.61947800;9.05303100;2022-09-09T09:19:49;4.05;;;1.10;;
7823;SDS011;3957;48.61947800;9.05303100;2022-09-09T09:23:24;3.33;;;1.05;;
7823;SDS011;3957;48.61947800;9.05303100;2022-09-09T09:24:56;3.03;;;0.95;;
7823;SDS011;3957;48.61947800;9.05303100;2022-09-09T09:26:30;3.00;;;0.90;;
7823;SDS011;3957;48.61947800;9.05303100;2022-09-09T09:27:58;3.47;;;1.07;;
7823;SDS011;3957;48.61947800;9.05303100;2022-09-09T09:29:25;1.17;;;0.80;;
7823;SDS011;3957;48.61947800;9.05303100;2022-09-09T09:30:54;3.55;;;1.10;;
7823;SDS011;3957;48.61947800;9.05303100;2022-09-09T09:32:30;1.60;;;1.08;;
7823;SDS011;3957;48.61947800;9.05303100;2022-09-09T09:33:54;1.85;;;1.02;;
7823;SDS011;3957;48.61947800;9.05303100;2022-09-09T09:35:19;2.08;;;0.98;;
7823;SDS011;3957;48.61947800;9.05303100;2022-09-09T09:36:44;2.92;;;0.98;;
7823;SDS011;3957;48.61947800;9.05303100;2022-09-09T09:38:16;4.03;;;1.30;;
7823;SDS011;3957;48.61947800;9.05303100;2022-09-09T09:39:39;2.55;;;0.82;;
7823;SDS011;3957;48.61947800;9.05303100;2022-09-09T09:41:00;2.53;;;0.80;;
7823;SDS011;3957;48.61947800;9.05303100;2022-09-09T09:42:24;1.80;;;0.90;;
7823;SDS011;3957;48.61947800;9.05303100;2022-09-09T09:43:53;1.88;;;0.82;;
7823;SDS011;3957;48.61947800;9.05303100;2022-09-09T09:45:20;2.95;;;1.10;;
7823;SDS011;3957;48.61947800;9.05303100;2022-09-09T09:46:44;1.27;;;0.98;;
7823;SDS011;3957;48.61947800;9.05303100;2022-09-09T09:48:10;4.53;;;1.05;;
7823;SDS011;3957;48.61947800;9.05303100;2022-09-09T09:49:33;1.48;;;0.80;;
7823;SDS011;3957;48.61947800;9.05303100;2022-09-09T09:51:11;2.22;;;0.88;;
7823;SDS011;3957;48.61947800;9.05303100;2022-09-09T09:52:37;1.50;;;1.00;;
7823;SDS011;3957;48.61947800;9.05303100;2022-09-09T09:55:55;3.13;;;1.08;;
7823;SDS011;3957;48.61947800;9.05303100;2022-09-09T09:57:18;2.42;;;1.10;;
7823;SDS011;3957;48.61947800;9.05303100;2022-09-09T09:58:51;3.05;;;0.90;;
7823;SDS011;3957;48.61947800;9.05303100;2022-09-09T10:00:19;1.02;;;0.73;;
7823;SDS011;3957;48.61947800;9.05303100;2022-09-09T10:01:53;1.98;;;0.90;;
7823;SDS011;3957;48.61947800;9.05303100;2022-09-09T10:03:19;1.35;;;0.82;;
7823;SDS011;3957;48.61947800;9.05303100;2022-09-09T10:04:46;2.95;;;0.98;;
7823;SDS011;3957;48.61947800;9.05303100;2022-09-09T10:06:08;3.05;;;1.10;;
7823;SDS011;3957;48.61947800;9.05303100;2022-09-09T10:07:28;1.50;;;0.95;;
7823;SDS011;3957;48.61947800;9.05303100;2022-09-09T10:08:49;2.25;;;0.90;;
7823;SDS011;3957;48.61947800;9.05303100;2022-09-09T10:10:15;1.83;;;0.93;;
7823;SDS011;3957;48.61947800;9.05303100;2022-09-09T10:11:50;2.10;;;1.00;;
7823;SDS011;3957;48.61947800;9.05303100;2022-09-09T10:24:54;1.73;;;0.80;;
7823;SDS011;3957;48.61947800;9.05303100;2022-09-09T10:26:50;0.70;;;0.70;;
7823;SDS011;3957;48.61947800;9.05303100;2022-09-09T10:28:33;2.67;;;1.08;;
7823;SDS011;3957;48.61947800;9.05303100;2022-09-09T10:30:19;1.80;;;0.98;;
7823;SDS011;3957;48.61947800;9.05303100;2022-09-09T10:33:46;1.30;;;0.70;;
7823;SDS011;3957;48.61947800;9.05303100;2022-09-09T10:36:46;1.98;;;0.77;;
7823;SDS011;3957;48.61947800;9.05303100;2022-09-09T10:38:14;3.13;;;0.73;;
7823;SDS011;3957;48.61947800;9.05303100;2022-09-09T10:39:38;4.53;;;0.75;;
7823;SDS011;3957;48.61947800;9.05303100;2022-09-09T10:41:07;2.80;;;0.80;;
7823;SDS011;3957;48.61947800;9.05303100;2022-09-09T10:42:40;1.98;;;0.75;;
7823;SDS011;3957;48.61947800;9.05303100;2022-09-09T10:44:10;2.30;;;0.88;;
7823;SDS011;3957;48.61947800;9.05303100;2022-09-09T10:45:47;0.90;;;0.70;;
7823;SDS011;3957;48.61947800;9.05303100;2022-09-09T10:49:00;0.70;;;0.60;;
7823;SDS011;3957;48.61947800;9.05303100;2022-09-09T10:50:55;0.90;;;0.70;;
7823;SDS011;3957;48.61947800;9.05303100;2022-09-09T10:55:52;5.85;;;0.80;;
7823;SDS011;3957;48.61947800;9.05303100;2022-09-09T10:59:22;1.83;;;0.90;;
7823;SDS011;3957;48.61947800;9.05303100;2022-09-09T11:00:51;1.70;;;1.00;;
7823;SDS011;3957;48.61947800;9.05303100;2022-09-09T11:02:21;1.20;;;0.88;;
7823;SDS011;3957;48.61947800;9.05303100;2022-09-09T11:03:52;3.27;;;1.10;;
7823;SDS011;3957;48.61947800;9.05303100;2022-09-09T11:05:21;1.70;;;1.10;;
7823;SDS011;3957;48.61947800;9.05303100;2022-09-09T11:06:56;1.80;;;1.00;;
7823;SDS011;3957;48.61947800;9.05303100;2022-09-09T11:08:27;2.50;;;1.00;;
7823;SDS011;3957;48.61947800;9.05303100;2022-09-09T11:09:52;2.63;;;1.00;;
7823;SDS011;3957;48.61947800;9.05303100;2022-09-09T11:11:20;2.28;;;0.98;;
7823;SDS011;3957;48.61947800;9.05303100;2022-09-09T11:12:47;3.03;;;1.00;;
7823;SDS011;3957;48.61947800;9.05303100;2022-09-09T11:14:15;3.50;;;1.13;;
7823;SDS011;3957;48.61947800;9.05303100;2022-09-09T11:15:53;1.85;;;0.90;;
7823;SDS011;3957;48.61947800;9.05303100;2022-09-09T11:17:24;1.65;;;0.82;;
7823;SDS011;3957;48.61947800;9.05303100;2022-09-09T11:18:50;1.27;;;0.75;;
7823;SDS011;3957;48.61947800;9.05303100;2022-09-09T11:20:19;2.50;;;0.82;;
7823;SDS011;3957;48.61947800;9.05303100;2022-09-09T11:21:46;2.72;;;0.80;;
7823;SDS011;3957;48.61947800;9.05303100;2022-09-09T11:23:12;1.50;;;0.85;;
7823;SDS011;3957;48.61947800;9.05303100;2022-09-09T11:24:47;1.58;;;0.88;;
7823;SDS011;3957;48.61947800;9.05303100;2022-09-09T11:26:17;1.05;;;0.70;;
7823;SDS011;3957;48.61947800;9.05303100;2022-09-09T11:29:49;1.48;;;0.95;;
7823;SDS011;3957;48.61947800;9.05303100;2022-09-09T11:32:45;0.93;;;0.68;;
7823;SDS011;3957;48.61947800;9.05303100;2022-09-09T11:38:15;1.10;;;0.70;;
7823;SDS011;3957;48.61947800;9.05303100;2022-09-09T11:41:34;2.30;;;0.70;;
7823;SDS011;3957;48.61947800;9.05303100;2022-09-09T11:43:01;1.80;;;0.65;;
7823;SDS011;3957;48.61947800;9.05303100;2022-09-09T11:44:28;1.40;;;0.60;;
7823;SDS011;3957;48.61947800;9.05303100;2022-09-09T11:45:52;0.80;;;0.55;;
7823;SDS011;3957;48.61947800;9.05303100;2022-09-09T11:47:24;0.50;;;0.50;;
7823;SDS011;3957;48.61947800;9.05303100;2022-09-09T11:49:02;0.90;;;0.60;;
7823;SDS011;3957;48.61947800;9.05303100;2022-09-09T11:51:46;0.73;;;0.60;;
7823;SDS011;3957;48.61947800;9.05303100;2022-09-09T11:54:34;2.10;;;0.65;;
7823;SDS011;3957;48.61947800;9.05303100;2022-09-09T11:56:09;0.80;;;0.40;;
7823;SDS011;3957;48.61947800;9.05303100;2022-09-09T11:57:34;1.08;;;0.38;;
7823;SDS011;3957;48.61947800;9.05303100;2022-09-09T11:59:03;0.40;;;0.40;;
7823;SDS011;3957;48.61947800;9.05303100;2022-09-09T12:00:36;1.60;;;0.55;;
7823;SDS011;3957;48.61947800;9.05303100;2022-09-09T12:02:02;1.00;;;0.50;;
7823;SDS011;3957;48.61947800;9.05303100;2022-09-09T12:03:48;2.50;;;0.80;;
7823;SDS011;3957;48.61947800;9.05303100;2022-09-09T12:05:13;0.50;;;0.50;;
7823;SDS011;3957;48.61947800;9.05303100;2022-09-09T12:06:42;0.57;;;0.57;;
7823;SDS011;3957;48.61947800;9.05303100;2022-09-09T12:08:07;0.80;;;0.50;;
7823;SDS011;3957;48.61947800;9.05303100;2022-09-09T12:09:48;1.15;;;0.47;;
7823;SDS011;3957;48.61947800;9.05303100;2022-09-09T12:11:12;0.50;;;0.50;;
7823;SDS011;3957;48.61947800;9.05303100;2022-09-09T12:12:44;0.65;;;0.50;;
7823;SDS011;3957;48.61947800;9.05303100;2022-09-09T12:14:18;1.10;;;0.60;;
7823;SDS011;3957;48.61947800;9.05303100;2022-09-09T12:15:48;1.60;;;0.70;;
7823;SDS011;3957;48.61947800;9.05303100;2022-09-09T12:17:17;1.23;;;0.70;;
7823;SDS011;3957;48.61947800;9.05303100;2022-09-09T12:18:40;2.97;;;0.77;;
7823;SDS011;3957;48.61947800;9.05303100;2022-09-09T12:24:41;0.75;;;0.70;;
7823;SDS011;3957;48.61947800;9.05303100;2022-09-09T12:26:20;0.55;;;0.50;;
7823;SDS011;3957;48.61947800;9.05303100;2022-09-09T12:29:26;1.90;;;0.68;;
7823;SDS011;3957;48.61947800;9.05303100;2022-09-09T12:31:00;1.58;;;0.85;;
7823;SDS011;3957;48.61947800;9.05303100;2022-09-09T12:32:28;2.40;;;0.70;;
7823;SDS011;3957;48.61947800;9.05303100;2022-09-09T12:33:50;1.90;;;0.80;;
7823;SDS011;3957;48.61947800;9.05303100;2022-09-09T12:35:16;2.78;;;0.73;;
7823;SDS011;3957;48.61947800;9.05303100;2022-09-09T12:36:42;2.75;;;0.70;;